KOCF/OCF METAR and TAF weather

Enter ICAO airport designator
Station Type Date Time Source
KOCF METAR 2019/04/25 17:51 UTC NOAA

KOCF 251751Z VRB03KT 10SM CLR 28/16 A3000 RMK AO2 SLP160 T02780156 10278 20167 55016 $


Station Type Date Time Source
KOCF Decoded METAR 2019/04/25 17:51 UTC NOAA

Ocala, Ocala International Airport-Jim Taylor Field, FL, United States (KOCF) 29-10N 082-13W
Apr 25, 2019 - 01:51 PM EDT / 2019.04.25 1751 UTC
Wind: Variable at 3 MPH (3 KT):0
Visibility: 10 mile(s):0
Sky conditions: clear
Temperature: 82.0 F (27.8 C)
Dew Point: 60.1 F (15.6 C)
Relative Humidity: 47%
Pressure (altimeter): 30 in. Hg (1015 hPa)
Pressure tendency: 0.05 inches (1.6 hPa) lower than three hours ago
ob: KOCF 251751Z VRB03KT 10SM CLR 28/16 A3000 RMK AO2 SLP160 T02780156 10278 20167 55016
cycle: 18

Station Type Date Time Source
KOCF TAF UTC NOAA

Error!

Example: see airport list